Terminal Aerodrome Forecast
Issued by NWS

Home | Current Version | Previous Version | Text Only | Print | Product List | Glossary On
Versions: 1 2 3 4 5 6 7 8 9 10 11 12 13 14 15 16 17 18
000
FTUS43 KIND 252322
TAFLAF
TAF
KLAF 252322Z 2600/2624 36003KT P6SM FEW040 BKN250
     FM260500 02005KT P6SM SCT250
     FM260900 VRB02KT 3SM BR SCT150
     FM261400 08005KT P6SM SCT035
      AMD LTD TO CLD VIS AND WIND 2601/2613=

USA.gov is the U.S. government's official web portal to all federal, state and local government web resources and services.